Time;durP1;ratioP1;P1;durP2;ratioP2;P2;SDS_P1;SDS_P2;PMS_P1;PMS_P2;Temp;Humidity;BMP_temperature;BMP_pressure;BME280_temperature;BME280_humidity;BME280_pressure;Samples;Min_cycle;Max_cycle;Signal;HPM_P1;HPM_P2
2022/09/13 00:02:07;;;;;;;2.30;2.10;;;;;;;15.88;56.91;96062.31;5093142;28;20048;-60
2022/09/13 00:04:35;;;;;;;2.58;2.38;;;;;;;15.85;56.59;96059.88;5093455;28;20052;-60
2022/09/13 00:07:02;;;;;;;1.63;1.52;;;;;;;15.79;56.60;96054.06;5093237;28;20040;-59
2022/09/13 00:09:31;;;;;;;1.92;1.83;;;;;;;15.81;57.05;96050.47;5093093;28;20048;-59
2022/09/13 00:11:58;;;;;;;1.70;1.60;;;;;;;15.75;56.97;96051.75;5092987;28;20127;-59
2022/09/13 00:14:25;;;;;;;1.80;1.70;;;;;;;15.75;57.26;96049.94;5092890;28;20401;-59
2022/09/13 00:16:52;;;;;;;2.10;2.00;;;;;;;15.72;56.98;96047.53;5093066;28;20238;-59
2022/09/13 00:19:20;;;;;;;4.38;2.28;;;;;;;15.68;56.98;96051.28;5092987;28;20068;-59
2022/09/13 00:21:47;;;;;;;2.20;2.00;;;;;;;15.64;57.11;96048.03;5093074;28;20048;-60
2022/09/13 00:24:14;;;;;;;2.25;2.00;;;;;;;15.64;57.33;96052.44;5092968;28;20083;-59
2022/09/13 00:26:43;;;;;;;1.85;1.75;;;;;;;15.58;57.18;96048.44;5092966;28;20066;-59
2022/09/13 00:29:10;;;;;;;7.78;2.40;;;;;;;15.49;57.81;96049.03;5092891;28;20493;-59
2022/09/13 00:31:37;;;;;;;2.20;2.00;;;;;;;15.48;57.31;96048.22;5092897;28;20098;-59
2022/09/13 00:34:05;;;;;;;4.03;2.10;;;;;;;15.37;57.20;96046.28;5092904;28;20048;-59
2022/09/13 00:36:32;;;;;;;3.80;2.00;;;;;;;15.34;57.93;96042.97;5092855;28;20101;-59
2022/09/13 00:39:00;;;;;;;3.60;2.20;;;;;;;15.26;57.93;96051.41;5092757;28;20044;-59
2022/09/13 00:41:27;;;;;;;3.78;2.13;;;;;;;15.18;57.88;96044.00;5093537;28;20044;-59
2022/09/13 00:43:58;;;;;;;4.13;1.90;;;;;;;15.20;57.68;96041.25;5096477;28;20044;-59
2022/09/13 00:46:33;;;;;;;3.50;2.40;;;;;;;15.14;58.45;96045.13;5096555;28;20451;-59
2022/09/13 00:49:11;;;;;;;2.70;2.28;;;;;;;15.15;58.73;96052.91;5096543;28;20412;-59
2022/09/13 00:51:40;;;;;;;3.38;2.28;;;;;;;15.12;58.59;96041.75;5096480;28;20048;-59
2022/09/13 00:54:07;;;;;;;6.45;2.22;;;;;;;15.10;59.09;96046.25;5096608;28;20375;-59
2022/09/13 00:56:40;;;;;;;2.30;2.10;;;;;;;15.08;58.45;96043.72;5096365;28;20402;-59
2022/09/13 00:59:13;;;;;;;4.47;2.22;;;;;;;15.08;59.64;96038.44;5096296;28;20485;-60
2022/09/13 01:01:47;;;;;;;2.30;2.10;;;;;;;15.03;58.76;96037.91;5096502;28;20091;-59
2022/09/13 01:04:17;;;;;;;3.70;2.15;;;;;;;15.07;58.92;96042.03;5096092;28;20073;-59
2022/09/13 01:06:45;;;;;;;4.22;2.60;;;;;;;15.02;59.71;96039.69;5096124;28;20080;-59
2022/09/13 01:09:14;;;;;;;2.47;2.20;;;;;;;14.97;58.80;96035.66;5096084;28;20052;-59
2022/09/13 01:11:49;;;;;;;3.65;2.28;;;;;;;14.95;59.44;96038.41;5096441;28;20048;-59
2022/09/13 01:14:19;;;;;;;2.15;1.92;;;;;;;14.97;58.83;96036.53;5095908;28;20059;-59
2022/09/13 01:16:47;;;;;;;2.13;2.03;;;;;;;15.00;58.63;96032.84;5095946;28;20048;-60
2022/09/13 01:19:14;;;;;;;2.80;2.25;;;;;;;14.92;58.88;96033.31;5095736;28;20092;-59
2022/09/13 01:22:09;;;;;;;2.72;2.30;;;;;;;14.94;59.28;96031.47;5095930;28;20048;-59
2022/09/13 01:25:14;;;;;;;4.43;2.55;;;;;;;14.92;58.39;96033.31;5095918;28;20047;-59
2022/09/13 01:27:58;;;;;;;2.60;2.33;;;;;;;14.94;57.36;96035.88;5095802;28;20083;-59
2022/09/13 01:30:35;;;;;;;2.17;1.98;;;;;;;14.93;57.67;96037.63;5095678;28;20043;-59
2022/09/13 01:33:19;;;;;;;4.18;2.20;;;;;;;14.86;57.55;96021.41;5095688;28;20496;-59
2022/09/13 01:36:02;;;;;;;2.30;1.77;;;;;;;14.91;57.56;96027.22;5095735;28;20101;-59
2022/09/13 01:38:46;;;;;;;2.15;1.60;;;;;;;14.91;57.15;96029.00;5095608;28;20145;-59
2022/09/13 01:41:28;;;;;;;1.88;1.77;;;;;;;14.89;57.83;96036.16;5095587;28;20425;-59
2022/09/13 01:44:02;;;;;;;2.75;1.77;;;;;;;14.92;57.45;96030.69;5095440;28;20131;-59
2022/09/13 01:46:38;;;;;;;4.10;1.80;;;;;;;14.89;57.56;96026.47;5095348;28;20044;-60
2022/09/13 01:49:15;;;;;;;1.92;1.80;;;;;;;14.91;57.56;96029.00;5095275;28;20490;-59
2022/09/13 01:51:47;;;;;;;2.75;2.00;;;;;;;14.92;57.45;96030.69;5095348;28;20048;-59
2022/09/13 01:54:20;;;;;;;4.35;1.80;;;;;;;14.91;57.22;96034.28;5093913;28;20056;-60
2022/09/13 01:56:54;;;;;;;1.85;1.67;;;;;;;14.94;56.93;96031.47;5095169;28;20460;-59
2022/09/13 01:59:28;;;;;;;3.65;1.70;;;;;;;14.95;57.13;96021.75;5095029;28;20056;-59
2022/09/13 02:02:01;;;;;;;1.95;1.83;;;;;;;14.88;57.03;96019.53;5095153;28;20094;-59
2022/09/13 02:04:35;;;;;;;1.83;1.73;;;;;;;14.90;58.42;96014.16;5095199;28;20497;-59
2022/09/13 02:07:07;;;;;;;4.28;1.60;;;;;;;14.93;57.01;96019.22;5095037;28;20122;-59
2022/09/13 02:09:37;;;;;;;4.03;1.80;;;;;;;14.89;56.99;96012.47;5094892;28;20097;-59
2022/09/13 02:12:10;;;;;;;2.05;1.77;;;;;;;14.94;57.25;96017.44;5094923;28;20043;-60
2022/09/13 02:14:43;;;;;;;3.70;1.92;;;;;;;15.02;56.29;96017.81;5094658;28;20040;-59
2022/09/13 02:17:16;;;;;;;4.25;1.88;;;;;;;14.99;56.62;96021.44;5094706;28;20052;-59
2022/09/13 02:19:52;;;;;;;3.97;1.77;;;;;;;14.94;56.86;96020.91;5094678;28;20105;-59
2022/09/13 02:22:24;;;;;;;6.78;1.70;;;;;;;14.97;56.56;96018.09;5094805;28;20048;-59
2022/09/13 02:24:55;;;;;;;2.15;1.73;;;;;;;14.98;57.69;96021.56;5094579;28;20040;-59
2022/09/13 02:27:26;;;;;;;2.38;1.77;;;;;;;14.96;57.57;96024.28;5094626;28;20109;-59
2022/09/13 02:29:57;;;;;;;5.38;1.60;;;;;;;14.98;56.80;96030.31;5094802;28;20382;-60
2022/09/13 02:32:31;;;;;;;3.55;1.83;;;;;;;15.00;57.25;96024.94;5094570;28;20436;-60
2022/09/13 02:35:05;;;;;;;1.70;1.60;;;;;;;15.00;57.92;96022.31;5094599;28;20105;-59
2022/09/13 02:37:36;;;;;;;1.92;1.70;;;;;;;15.00;57.43;96024.94;5094415;28;20055;-60
2022/09/13 02:40:08;;;;;;;2.15;1.70;;;;;;;15.00;57.55;96027.56;5094283;28;20051;-60
2022/09/13 02:42:40;;;;;;;4.50;2.88;;;;;;;14.97;58.04;96035.66;5094271;28;20048;-60
2022/09/13 02:45:09;;;;;;;2.40;1.73;;;;;;;14.93;57.39;96040.28;5094287;28;20092;-59
2022/09/13 02:47:49;;;;;;;1.88;1.67;;;;;;;14.85;58.85;96040.78;5094192;28;20052;-60
2022/09/13 02:50:30;;;;;;;2.22;2.03;;;;;;;14.75;59.18;96037.00;5094086;28;20040;-60
2022/09/13 02:53:04;;;;;;;2.35;2.15;;;;;;;14.64;59.25;96043.81;5094411;28;20145;-59
2022/09/13 02:55:41;;;;;;;5.13;2.10;;;;;;;14.48;60.10;96046.50;5094035;28;20054;-60
2022/09/13 02:58:14;;;;;;;5.85;2.22;;;;;;;14.37;60.98;96048.97;5093980;28;20040;-60
2022/09/13 03:00:41;;;;;;;2.38;2.17;;;;;;;14.28;60.67;96050.38;5093977;28;20512;-60
2022/09/13 03:03:14;;;;;;;4.85;2.40;;;;;;;13.99;62.58;96047.72;5093985;28;20093;-60
2022/09/13 03:05:42;;;;;;;6.03;2.28;;;;;;;13.84;62.90;96054.72;5093502;28;20512;-60
2022/09/13 03:08:12;;;;;;;2.17;1.98;;;;;;;13.61;63.48;96049.88;5093931;28;20094;-60
2022/09/13 03:10:49;;;;;;;4.80;2.00;;;;;;;13.53;64.15;96052.13;5093842;28;20093;-59
2022/09/13 03:13:37;;;;;;;2.30;2.10;;;;;;;13.45;64.56;96052.50;5093624;28;20105;-60
2022/09/13 03:16:15;;;;;;;3.58;2.30;;;;;;;13.42;65.20;96039.56;5093590;28;20087;-60
2022/09/13 03:19:01;;;;;;;3.65;2.15;;;;;;;13.38;65.33;96048.56;5093562;28;20090;-60
2022/09/13 03:21:45;;;;;;;2.63;2.42;;;;;;;13.30;65.47;96053.41;5093618;28;20040;-60
2022/09/13 03:24:23;;;;;;;6.45;2.13;;;;;;;13.19;65.83;96049.63;5093620;28;20039;-59
2022/09/13 03:27:03;;;;;;;3.80;2.15;;;;;;;13.15;65.87;96050.69;5093502;28;20050;-60
2022/09/13 03:29:39;;;;;;;2.30;2.10;;;;;;;13.10;65.89;96050.13;5093511;28;20044;-60
2022/09/13 03:32:19;;;;;;;3.65;2.20;;;;;;;13.03;66.10;96041.72;5093466;28;20468;-59
2022/09/13 03:34:53;;;;;;;4.18;2.00;;;;;;;13.01;66.05;96041.00;5093458;28;20098;-60
2022/09/13 03:37:28;;;;;;;2.65;2.25;;;;;;;12.98;66.53;96044.59;5093526;28;20046;-59
2022/09/13 03:40:00;;;;;;;2.33;2.05;;;;;;;12.88;66.63;96046.06;5093421;28;20051;-59
2022/09/13 03:42:34;;;;;;;8.88;2.20;;;;;;;12.77;66.99;96041.41;5093345;28;20410;-59
2022/09/13 03:45:03;;;;;;;4.82;2.33;;;;;;;12.66;67.33;96047.25;5093542;28;20048;-59
2022/09/13 03:47:35;;;;;;;5.10;2.67;;;;;;;12.55;68.13;96050.44;5093433;28;20375;-59
2022/09/13 03:50:07;;;;;;;3.50;2.25;;;;;;;12.41;68.23;96051.19;5093167;28;20048;-60
2022/09/13 03:52:35;;;;;;;9.88;2.33;;;;;;;12.32;68.98;96051.66;5093122;28;20097;-59
2022/09/13 03:55:03;;;;;;;7.53;2.35;;;;;;;12.30;69.00;96057.00;5093525;28;20059;-59
2022/09/13 03:57:30;;;;;;;5.03;1.90;;;;;;;12.32;69.21;96052.53;5093242;28;20044;-59
2022/09/13 03:59:58;;;;;;;3.78;1.95;;;;;;;12.30;69.20;96050.88;5093325;28;20078;-60
2022/09/13 04:02:28;;;;;;;3.83;2.17;;;;;;;12.21;69.72;96055.72;5093232;28;20498;-59
2022/09/13 04:04:55;;;;;;;3.22;2.25;;;;;;;12.18;70.12;96060.25;5093280;28;20140;-59
2022/09/13 04:07:25;;;;;;;2.70;2.50;;;;;;;12.19;70.50;96057.53;5093161;28;20580;-59
2022/09/13 04:09:53;;;;;;;5.97;2.30;;;;;;;12.16;70.56;96055.09;5093206;28;20101;-59
2022/09/13 04:12:21;;;;;;;9.75;2.50;;;;;;;12.21;70.84;96060.94;5093011;28;20105;-59
2022/09/13 04:14:48;;;;;;;6.18;2.17;;;;;;;12.30;70.88;96057.00;5092877;28;20048;-59
2022/09/13 04:17:15;;;;;;;2.22;2.03;;;;;;;12.42;71.13;96057.25;5095118;28;20076;-59
2022/09/13 04:19:43;;;;;;;5.10;2.30;;;;;;;12.46;71.46;96049.16;5097016;28;20138;-59
2022/09/13 04:22:11;;;;;;;5.07;2.25;;;;;;;12.55;71.33;96063.56;5097079;28;20079;-59
2022/09/13 04:24:39;;;;;;;4.40;2.20;;;;;;;12.58;71.03;96054.69;5096894;28;20044;-59
2022/09/13 04:27:07;;;;;;;3.75;2.00;;;;;;;12.59;70.83;96057.22;5097008;28;20127;-59
2022/09/13 04:29:34;;;;;;;7.63;2.05;;;;;;;12.64;70.53;96065.69;5096968;28;20127;-59
2022/09/13 04:32:02;;;;;;;6.88;2.35;;;;;;;12.68;70.62;96060.28;5096892;28;20106;-59
2022/09/13 04:34:29;;;;;;;5.20;2.22;;;;;;;12.65;70.75;96061.28;5096810;28;20047;-60
2022/09/13 04:36:57;;;;;;;3.10;2.00;;;;;;;12.76;70.98;96065.94;5096816;28;20048;-60
2022/09/13 04:39:31;;;;;;;6.63;2.63;;;;;;;13.17;70.14;96074.25;5096652;28;20051;-60
2022/09/13 04:42:01;;;;;;;3.92;2.05;;;;;;;13.47;69.36;96066.41;5096729;28;20048;-60
2022/09/13 04:44:29;;;;;;;2.15;1.90;;;;;;;13.61;68.28;96068.28;5096738;28;20486;-59
2022/09/13 04:46:56;;;;;;;7.43;1.80;;;;;;;13.92;68.05;96073.53;5096566;28;20040;-60
2022/09/13 04:49:23;;;;;;;3.10;1.92;;;;;;;14.70;65.58;96079.41;5096495;28;20048;-60
2022/09/13 04:51:50;;;;;;;1.60;1.45;;;;;;;15.43;62.51;96075.78;5096490;28;20055;-60
2022/09/13 04:54:18;;;;;;;1.80;1.70;;;;;;;15.60;61.68;96082.59;5096752;28;20482;-60
2022/09/13 04:56:47;;;;;;;2.25;1.77;;;;;;;15.53;61.53;96077.72;5096413;28;20074;-60
2022/09/13 04:59:17;;;;;;;7.35;1.65;;;;;;;15.52;61.73;96086.59;5096199;28;20444;-60
2022/09/13 05:01:44;;;;;;;2.08;1.70;;;;;;;15.37;61.93;96085.78;5096276;28;20051;-59
2022/09/13 05:04:13;;;;;;;3.55;1.70;;;;;;;15.44;62.12;96085.41;5096238;28;20048;-60
2022/09/13 05:06:40;;;;;;;4.78;1.92;;;;;;;15.83;61.62;96093.44;5096153;28;20051;-60
2022/09/13 05:09:08;;;;;;;3.38;1.45;;;;;;;15.87;60.70;96097.53;5096279;28;20056;-60
2022/09/13 05:11:35;;;;;;;3.20;1.85;;;;;;;15.95;61.13;96097.03;5096266;28;20059;-60
2022/09/13 05:14:04;;;;;;;3.35;1.65;;;;;;;16.20;61.26;96098.03;5095959;28;20048;-59
2022/09/13 05:16:34;;;;;;;2.22;1.50;;;;;;;16.87;58.71;96102.25;5096121;28;20101;-60
2022/09/13 05:19:01;;;;;;;1.65;1.40;;;;;;;17.39;57.44;96102.13;5096059;28;20056;-60
2022/09/13 05:21:30;;;;;;;3.97;1.48;;;;;;;18.33;54.64;96102.38;5096036;28;20048;-60
2022/09/13 05:23:58;;;;;;;2.22;1.40;;;;;;;18.89;53.25;96095.44;5095800;28;20051;-60
2022/09/13 05:26:49;;;;;;;4.97;1.50;;;;;;;19.11;53.01;96105.22;5095724;28;20559;-60
2022/09/13 05:29:21;;;;;;;4.85;1.52;;;;;;;19.91;50.80;96096.19;5095846;28;20055;-60
2022/09/13 05:31:50;;;;;;;1.60;1.40;;;;;;;20.53;49.29;96098.16;5095917;28;20052;-60
2022/09/13 05:34:19;;;;;;;1.38;1.23;;;;;;;21.12;47.37;96108.22;5095653;28;20059;-60
2022/09/13 05:36:49;;;;;;;2.92;1.30;;;;;;;22.09;45.77;96103.19;5095517;28;20048;-60
2022/09/13 05:39:17;;;;;;;1.92;1.40;;;;;;;23.20;43.23;96109.78;5095444;28;20048;-60
2022/09/13 05:41:45;;;;;;;4.03;1.27;;;;;;;24.06;41.07;96106.84;5095395;28;20048;-60
2022/09/13 05:44:13;;;;;;;2.97;1.25;;;;;;;24.79;38.69;96117.41;5095561;28;20054;-60
2022/09/13 05:46:40;;;;;;;4.00;1.38;;;;;;;25.31;36.67;96122.88;5095520;28;20051;-60
2022/09/13 05:49:08;;;;;;;3.30;1.40;;;;;;;25.70;35.65;96124.16;5095322;28;20139;-59
2022/09/13 05:51:36;;;;;;;2.78;1.13;;;;;;;26.18;33.97;96111.00;5095622;28;20075;-60
2022/09/13 05:54:03;;;;;;;1.60;1.23;;;;;;;26.85;33.07;96119.81;5095216;28;20051;-59
2022/09/13 05:56:31;;;;;;;1.02;0.95;;;;;;;27.48;31.85;96121.78;5094851;28;20406;-60
2022/09/13 05:58:59;;;;;;;1.50;1.17;;;;;;;28.04;31.76;96116.44;5095098;28;20044;-60
2022/09/13 06:01:28;;;;;;;3.53;1.10;;;;;;;28.08;31.33;96121.28;5095049;28;20139;-60
2022/09/13 06:03:57;;;;;;;1.13;1.02;;;;;;;28.34;30.81;96119.25;5095168;28;20458;-60
2022/09/13 06:06:26;;;;;;;1.13;1.00;;;;;;;28.62;29.79;96122.19;5095255;28;20079;-59
2022/09/13 06:08:54;;;;;;;1.88;1.20;;;;;;;28.79;30.38;96124.72;5095157;28;20083;-60
2022/09/13 06:11:22;;;;;;;2.15;1.20;;;;;;;28.89;30.06;96124.44;5094938;28;20490;-60
2022/09/13 06:13:50;;;;;;;2.95;1.00;;;;;;;29.14;28.57;96126.91;5094970;28;20044;-60
2022/09/13 06:16:20;;;;;;;3.75;1.13;;;;;;;29.36;28.48;96122.44;5094921;28;20127;-59
2022/09/13 06:18:47;;;;;;;2.38;1.00;;;;;;;29.48;29.23;96122.78;5094842;28;20516;-60
2022/09/13 06:21:17;;;;;;;3.72;1.08;;;;;;;29.54;27.94;96118.50;5094845;28;20051;-60
2022/09/13 06:23:46;;;;;;;0.93;0.90;;;;;;;29.58;27.58;96118.97;5094765;28;20128;-60
2022/09/13 06:26:15;;;;;;;1.52;1.20;;;;;;;29.46;29.46;96130.22;5094756;28;20059;-60
2022/09/13 06:28:46;;;;;;;1.15;1.05;;;;;;;29.40;28.13;96128.25;5094747;28;20044;-60
2022/09/13 06:31:16;;;;;;;1.40;1.00;;;;;;;29.34;28.43;96132.53;5094573;28;20074;-60
2022/09/13 06:33:44;;;;;;;2.35;1.17;;;;;;;29.42;28.48;96134.31;5094576;28;20403;-60
2022/09/13 06:36:13;;;;;;;0.93;0.90;;;;;;;29.46;29.59;96134.75;5094645;28;20498;-60
2022/09/13 06:38:41;;;;;;;1.17;1.02;;;;;;;29.36;29.24;96126.97;5094104;28;20082;-60
2022/09/13 06:41:12;;;;;;;0.95;0.80;;;;;;;29.21;28.70;96132.38;5094078;28;20048;-60
2022/09/13 06:43:39;;;;;;;3.33;0.90;;;;;;;29.01;29.02;96130.25;5094358;28;20434;-59
2022/09/13 06:46:09;;;;;;;1.33;1.00;;;;;;;28.83;31.06;96134.09;5094324;28;20044;-60
2022/09/13 06:48:38;;;;;;;1.95;0.93;;;;;;;28.68;29.99;96134.06;5094369;28;20127;-60
2022/09/13 06:51:08;;;;;;;2.20;1.10;;;;;;;28.84;29.43;96135.75;5094181;28;20425;-60
2022/09/13 06:53:36;;;;;;;1.35;1.00;;;;;;;28.85;28.63;96142.84;5094069;28;20237;-60
2022/09/13 06:56:06;;;;;;;3.70;1.38;;;;;;;28.80;28.86;96141.72;5094081;28;20059;-60
2022/09/13 06:58:36;;;;;;;2.10;1.27;;;;;;;28.45;30.05;96143.06;5094080;28;20051;-60
2022/09/13 07:01:11;;;;;;;1.07;0.97;;;;;;;28.36;28.18;96146.81;5094098;28;20343;-60
2022/09/13 07:03:40;;;;;;;1.33;1.20;;;;;;;28.05;28.23;96148.50;5094100;28;20102;-60
2022/09/13 07:06:09;;;;;;;1.60;1.17;;;;;;;27.96;29.68;96157.66;5093900;28;20052;-60
2022/09/13 07:08:36;;;;;;;1.00;0.90;;;;;;;27.85;29.23;96151.69;5093947;28;20122;-60
2022/09/13 07:11:04;;;;;;;2.47;1.15;;;;;;;27.49;29.42;96161.06;5093676;28;20047;-60
2022/09/13 07:13:32;;;;;;;2.58;0.90;;;;;;;27.22;30.33;96156.97;5093520;28;20490;-60
2022/09/13 07:16:04;;;;;;;2.67;1.20;;;;;;;27.14;30.39;96159.69;5093929;28;20044;-60
2022/09/13 07:18:32;;;;;;;1.30;1.05;;;;;;;27.11;29.76;96153.66;5093901;28;20083;-60
2022/09/13 07:21:02;;;;;;;5.20;1.20;;;;;;;27.21;30.80;96156.13;5093607;28;20044;-60
2022/09/13 07:23:32;;;;;;;1.60;1.00;;;;;;;27.25;28.09;96159.31;5093463;28;20131;-59
2022/09/13 07:26:03;;;;;;;1.35;1.25;;;;;;;27.42;29.88;96164.63;5093588;28;20073;-59
2022/09/13 07:28:32;;;;;;;1.15;1.05;;;;;;;27.24;29.56;96155.78;5093620;28;20118;-60
2022/09/13 07:31:07;;;;;;;1.98;0.90;;;;;;;27.50;29.53;96156.53;5093640;28;20082;-59
2022/09/13 07:33:34;;;;;;;1.17;1.08;;;;;;;27.73;28.57;96153.09;5093684;28;20405;-59
2022/09/13 07:36:05;;;;;;;0.88;0.88;;;;;;;27.95;27.78;96159.50;5093409;28;20040;-60
2022/09/13 07:38:33;;;;;;;1.38;1.20;;;;;;;27.84;29.25;96159.91;5093354;28;20055;-59
2022/09/13 07:41:01;;;;;;;3.28;1.42;;;;;;;27.92;27.97;96164.38;5093367;28;20048;-59
2022/09/13 07:43:28;;;;;;;4.47;1.10;;;;;;;27.88;28.06;96169.28;5093424;28;20409;-59
2022/09/13 07:45:59;;;;;;;1.23;0.90;;;;;;;28.22;27.87;96175.28;5093275;28;20490;-60
2022/09/13 07:48:30;;;;;;;3.20;1.30;;;;;;;28.53;28.13;96173.56;5093464;28;20040;-60
2022/09/13 07:51:00;;;;;;;1.45;1.00;;;;;;;28.59;29.04;96162.09;5093233;28;20409;-59
2022/09/13 07:53:27;;;;;;;2.63;1.20;;;;;;;28.53;28.86;96165.50;5093211;28;20515;-61
2022/09/13 07:55:54;;;;;;;1.48;1.25;;;;;;;28.47;28.32;96154.44;5093155;28;20056;-60
2022/09/13 07:58:21;;;;;;;1.00;0.90;;;;;;;28.29;30.26;96156.59;5093415;28;20087;-60
2022/09/13 08:00:48;;;;;;;0.98;0.98;;;;;;;27.53;28.13;96144.59;5093081;28;20131;-60
2022/09/13 08:03:16;;;;;;;4.53;1.05;;;;;;;26.88;31.90;96162.41;5093251;28;20458;-60
2022/09/13 08:05:44;;;;;;;3.08;1.10;;;;;;;26.79;31.54;96160.72;5093055;28;20063;-60
2022/09/13 08:08:12;;;;;;;1.45;1.08;;;;;;;26.70;31.76;96157.22;5093165;28;20048;-60
2022/09/13 08:10:39;;;;;;;1.52;0.90;;;;;;;27.02;29.79;96151.19;5093080;28;20548;-60
2022/09/13 08:13:06;;;;;;;1.00;1.00;;;;;;;27.17;30.51;96149.44;5092829;28;20105;-60
2022/09/13 08:15:34;;;;;;;2.10;1.30;;;;;;;27.47;29.38;96155.03;5093086;28;20040;-60
2022/09/13 08:18:01;;;;;;;3.38;1.00;;;;;;;26.98;28.69;96150.69;5092957;28;20528;-60
2022/09/13 08:20:28;;;;;;;1.77;1.00;;;;;;;26.52;29.46;96148.53;5093042;28;20048;-60
2022/09/13 08:22:56;;;;;;;3.15;1.30;;;;;;;26.51;31.83;96146.88;5092963;28;20485;-60
2022/09/13 08:25:25;;;;;;;1.65;1.00;;;;;;;26.56;31.38;96155.22;5093096;28;20105;-60
2022/09/13 08:27:52;;;;;;;3.20;1.10;;;;;;;26.27;31.36;96146.66;5093040;28;20044;-60
2022/09/13 08:30:19;;;;;;;2.10;1.38;;;;;;;26.31;30.98;96149.88;5093072;28;20509;-60
2022/09/13 08:32:50;;;;;;;1.02;0.93;;;;;;;26.07;30.70;96148.84;5092970;28;20048;-60
2022/09/13 08:35:17;;;;;;;0.93;0.93;;;;;;;25.65;31.82;96151.44;5092958;28;20040;-60
2022/09/13 08:37:45;;;;;;;3.78;1.20;;;;;;;25.52;31.78;96146.50;5092820;28;20064;-60
2022/09/13 08:40:13;;;;;;;5.18;1.08;;;;;;;25.59;33.33;96146.72;5092779;28;20129;-60
2022/09/13 08:42:51;;;;;;;1.30;1.20;;;;;;;25.91;33.31;96152.34;5092818;28;20055;-60
2022/09/13 08:45:19;;;;;;;1.08;1.00;;;;;;;26.40;32.27;96150.72;5092789;28;20557;-60
2022/09/13 08:47:53;;;;;;;1.27;1.10;;;;;;;26.17;29.87;96154.03;5092741;28;20044;-60
2022/09/13 08:50:26;;;;;;;2.20;1.20;;;;;;;25.64;30.13;96147.06;5092773;28;20447;-60
2022/09/13 08:53:05;;;;;;;1.30;0.98;;;;;;;25.16;32.61;96152.88;5092804;28;20611;-60
2022/09/13 08:55:49;;;;;;;1.25;1.00;;;;;;;24.96;34.82;96153.09;5092617;28;20131;-60
2022/09/13 08:58:40;;;;;;;1.10;1.00;;;;;;;25.02;34.67;96148.13;5092745;28;20379;-60
2022/09/13 09:01:13;;;;;;;3.08;1.10;;;;;;;24.80;35.30;96155.69;5092520;28;20048;-60
2022/09/13 09:03:46;;;;;;;1.20;1.10;;;;;;;24.02;34.80;96161.53;5095107;28;20051;-59
2022/09/13 09:06:16;;;;;;;1.42;1.33;;;;;;;23.69;36.24;96159.38;5096194;28;20044;-59
2022/09/13 09:08:48;;;;;;;6.95;1.50;;;;;;;23.48;36.30;96159.66;5096326;28;20079;-60
2022/09/13 09:11:29;;;;;;;1.20;1.10;;;;;;;23.15;35.49;96159.22;5096429;28;20051;-60
2022/09/13 09:14:03;;;;;;;2.20;1.15;;;;;;;22.76;35.97;96166.38;5094778;28;20578;-60
2022/09/13 09:16:37;;;;;;;1.45;1.20;;;;;;;22.65;36.53;96155.84;5095977;28;20052;-60
2022/09/13 09:19:17;;;;;;;1.20;1.00;;;;;;;22.64;36.49;96163.03;5095892;28;20059;-60
2022/09/13 09:21:47;;;;;;;2.03;1.30;;;;;;;22.49;36.66;96159.09;5095828;28;20052;-60
2022/09/13 09:24:19;;;;;;;2.30;1.33;;;;;;;22.47;37.04;96154.75;5095903;28;20086;-60
2022/09/13 09:26:48;;;;;;;1.30;1.20;;;;;;;22.59;38.75;96159.94;5095791;28;20047;-60
2022/09/13 09:29:24;;;;;;;1.48;1.38;;;;;;;22.66;37.89;96155.72;5095779;28;20044;-59
2022/09/13 09:32:08;;;;;;;1.10;1.00;;;;;;;22.64;36.71;96154.19;5095732;28;20052;-60
2022/09/13 09:34:50;;;;;;;2.80;1.45;;;;;;;22.68;40.77;96166.25;5095799;28;20051;-60
2022/09/13 09:37:21;;;;;;;2.65;1.55;;;;;;;22.75;40.82;96159.34;5095757;28;20044;-60
2022/09/13 09:39:49;;;;;;;3.47;1.40;;;;;;;22.83;40.29;96163.94;5095603;28;20371;-60
2022/09/13 09:42:23;;;;;;;1.92;1.13;;;;;;;22.92;41.38;96155.09;5095405;28;20055;-59
2022/09/13 09:44:53;;;;;;;1.98;1.20;;;;;;;23.00;37.69;96161.53;5095548;28;20048;-60
2022/09/13 09:47:23;;;;;;;1.42;1.23;;;;;;;23.06;37.33;96158.28;5095378;28;20051;-60
2022/09/13 09:50:11;;;;;;;1.55;1.20;;;;;;;23.12;36.18;96154.19;5094987;28;20409;-60
2022/09/13 09:52:43;;;;;;;1.80;1.25;;;;;;;23.10;34.27;96144.50;5095410;28;20048;-59
2022/09/13 09:55:20;;;;;;;1.00;1.00;;;;;;;23.15;35.58;96141.38;5095396;28;20089;-59
2022/09/13 09:57:53;;;;;;;2.42;1.30;;;;;;;23.12;38.72;96147.03;5095302;28;20040;-60
2022/09/13 10:00:23;;;;;;;2.38;1.35;;;;;;;23.32;34.85;96133.56;5095315;28;20044;-59
2022/09/13 10:02:54;;;;;;;2.70;1.20;;;;;;;23.68;35.24;96138.16;5095096;28;20055;-60
2022/09/13 10:05:25;;;;;;;1.35;0.80;;;;;;;23.95;34.38;96123.94;5095219;28;20410;-60
2022/09/13 10:08:01;;;;;;;2.28;1.30;;;;;;;24.23;35.50;96123.03;5095276;28;20119;-59
2022/09/13 10:10:37;;;;;;;1.25;1.00;;;;;;;24.60;32.74;96129.16;5095051;28;20047;-59
2022/09/13 10:13:13;;;;;;;1.88;1.00;;;;;;;24.62;33.06;96127.13;5094812;28;20050;-60
2022/09/13 10:15:53;;;;;;;3.65;1.02;;;;;;;24.54;32.99;96125.28;5093892;28;20075;-59
2022/09/13 10:18:23;;;;;;;0.90;0.90;;;;;;;24.65;32.50;96129.50;5094978;28;20500;-60
2022/09/13 10:21:01;;;;;;;0.90;0.90;;;;;;;24.93;30.41;96124.03;5094816;28;20044;-59
2022/09/13 10:23:29;;;;;;;1.42;0.95;;;;;;;24.88;32.94;96122.81;5094757;28;20052;-60
2022/09/13 10:26:04;;;;;;;2.72;1.15;;;;;;;24.94;28.66;96117.69;5094927;28;20048;-59
2022/09/13 10:28:36;;;;;;;1.20;1.10;;;;;;;25.02;31.77;96114.22;5094721;28;20048;-60
2022/09/13 10:31:07;;;;;;;2.15;1.00;;;;;;;25.14;34.09;96119.28;5094771;28;20101;-60
2022/09/13 10:33:38;;;;;;;1.35;1.10;;;;;;;25.27;32.87;96108.09;5093391;28;20044;-59
2022/09/13 10:36:08;;;;;;;3.95;1.00;;;;;;;25.16;32.27;96106.59;5094594;28;20379;-60
2022/09/13 10:38:39;;;;;;;0.80;0.80;;;;;;;25.09;34.15;96111.72;5094580;28;20496;-59
2022/09/13 10:41:09;;;;;;;1.95;1.25;;;;;;;24.97;32.83;96109.34;5094624;28;20060;-60
2022/09/13 10:43:38;;;;;;;2.17;1.20;;;;;;;24.91;31.92;96098.44;5094553;28;20044;-60
2022/09/13 10:46:11;;;;;;;1.50;0.85;;;;;;;24.91;32.41;96112.66;5094455;28;20051;-59
2022/09/13 10:48:47;;;;;;;3.75;1.20;;;;;;;24.90;32.03;96107.47;5094417;28;20181;-59
2022/09/13 10:51:31;;;;;;;6.10;1.10;;;;;;;24.70;32.04;96105.81;5094151;28;20044;-60
2022/09/13 10:54:15;;;;;;;1.52;1.10;;;;;;;24.47;31.88;96102.84;5094051;28;20052;-59
2022/09/13 10:56:44;;;;;;;8.27;1.15;;;;;;;23.90;34.14;96090.69;5094139;28;20097;-59
2022/09/13 10:59:20;;;;;;;1.27;1.17;;;;;;;23.88;34.06;96095.31;5094236;28;20048;-59
2022/09/13 11:02:10;;;;;;;1.40;1.30;;;;;;;23.70;32.88;96089.00;5093936;28;20051;-59
2022/09/13 11:05:17;;;;;;;1.10;1.10;;;;;;;23.53;34.97;96087.13;5094028;28;20059;-59
2022/09/13 11:08:13;;;;;;;1.67;1.10;;;;;;;23.18;34.75;96082.41;5093915;28;20445;-59
2022/09/13 11:10:50;;;;;;;1.40;1.30;;;;;;;23.04;34.09;96085.56;5090185;28;20052;-59
2022/09/13 11:13:28;;;;;;;0.98;0.93;;;;;;;23.03;32.87;96086.56;5093490;28;20056;-59
2022/09/13 11:16:05;;;;;;;3.72;1.20;;;;;;;22.99;35.37;96086.00;5093796;28;20058;-59
2022/09/13 11:19:03;;;;;;;1.67;1.00;;;;;;;23.04;36.83;96082.91;5093763;28;20121;-59
2022/09/13 11:21:43;;;;;;;4.30;1.20;;;;;;;23.04;37.72;96077.56;5062832;28;20044;-59
2022/09/13 11:24:39;;;;;;;1.00;1.00;;;;;;;23.20;36.14;96082.25;5093811;28;20047;-60
2022/09/13 11:27:17;;;;;;;2.17;1.15;;;;;;;23.62;35.23;96070.22;5093292;28;20048;-60
2022/09/13 11:30:13;;;;;;;1.33;1.00;;;;;;;23.88;34.26;96074.81;5093616;28;20055;-60
2022/09/13 11:33:18;;;;;;;4.03;1.15;;;;;;;24.22;34.73;96066.09;5089680;28;20452;-59
2022/09/13 11:36:04;;;;;;;2.42;1.00;;;;;;;24.32;34.20;96071.31;5071548;28;20079;-59
2022/09/13 11:38:49;;;;;;;2.22;1.20;;;;;;;24.42;34.89;96065.91;5093403;28;20119;-59
2022/09/13 11:41:28;;;;;;;1.40;1.00;;;;;;;24.43;33.29;96066.72;5093332;28;20058;-59
2022/09/13 11:44:22;;;;;;;1.33;1.02;;;;;;;24.35;33.76;96068.34;5093296;28;20082;-59
2022/09/13 11:46:57;;;;;;;1.13;1.00;;;;;;;24.29;34.92;96065.47;5093360;28;20044;-59
2022/09/13 11:49:42;;;;;;;2.60;1.30;;;;;;;24.15;35.47;96072.22;5093389;28;20127;-60
2022/09/13 11:52:21;;;;;;;1.55;1.23;;;;;;;24.14;36.42;96065.19;5093401;28;20083;-59
2022/09/13 11:55:05;;;;;;;2.20;1.10;;;;;;;24.11;37.89;96061.81;5093244;28;20535;-60
2022/09/13 11:57:37;;;;;;;1.40;1.20;;;;;;;24.12;38.78;96062.66;5093323;28;20135;-59
2022/09/13 12:00:08;;;;;;;1.00;1.00;;;;;;;24.08;37.60;96064.78;5093186;28;20048;-59